createdAt,value
2022-10-17T00:00:47.256Z,99.90
2022-10-17T00:03:16.086Z,99.90
2022-10-17T00:05:46.879Z,99.90
2022-10-17T00:08:16.364Z,99.90
2022-10-17T00:10:46.207Z,99.90
2022-10-17T00:13:14.263Z,99.90
2022-10-17T00:15:45.944Z,99.90
2022-10-17T00:18:14.012Z,99.90
2022-10-17T00:20:42.529Z,99.90
2022-10-17T00:23:10.758Z,99.90
2022-10-17T00:25:38.815Z,99.90
2022-10-17T00:28:10.048Z,99.90
2022-10-17T00:30:38.075Z,99.90
2022-10-17T00:33:06.382Z,99.90
2022-10-17T00:35:34.855Z,99.90
2022-10-17T00:38:02.931Z,99.90
2022-10-17T00:40:32.904Z,99.90
2022-10-17T00:43:03.797Z,99.90
2022-10-17T00:45:33.304Z,99.90
2022-10-17T00:48:06.298Z,99.90
2022-10-17T00:50:36.219Z,99.90
2022-10-17T00:53:06.692Z,99.90
2022-10-17T00:55:38.231Z,99.90
2022-10-17T00:58:07.564Z,99.90
2022-10-17T01:00:37.087Z,99.90
2022-10-17T01:03:05.552Z,99.90
2022-10-17T01:05:33.976Z,99.90
2022-10-17T01:08:02.382Z,99.90
2022-10-17T01:10:35.977Z,99.90
2022-10-17T01:13:12.787Z,99.90
2022-10-17T01:15:52.768Z,99.90
2022-10-17T01:18:32.182Z,99.90
2022-10-17T01:21:20.384Z,99.90
2022-10-17T01:24:22.615Z,99.90
2022-10-17T01:27:23.887Z,99.90
2022-10-17T01:30:27.631Z,99.90
2022-10-17T01:33:03.763Z,99.90
2022-10-17T01:35:40.739Z,99.90
2022-10-17T01:38:12.730Z,99.90
2022-10-17T01:40:46.180Z,99.90
2022-10-17T01:43:19.264Z,99.90
2022-10-17T01:45:52.712Z,99.90
2022-10-17T01:48:25.871Z,99.90
2022-10-17T01:51:04.936Z,99.90
2022-10-17T01:53:37.426Z,99.90
2022-10-17T01:56:09.913Z,99.90
2022-10-17T01:58:44.406Z,99.90
2022-10-17T02:01:14.586Z,99.90
2022-10-17T02:03:46.147Z,99.90
2022-10-17T02:06:14.279Z,99.90
2022-10-17T02:08:45.111Z,99.90
2022-10-17T02:11:16.706Z,99.90
2022-10-17T02:16:52.327Z,99.90
2022-10-17T02:19:52.190Z,99.90
2022-10-17T02:22:31.454Z,99.90
2022-10-17T02:25:08.150Z,99.90
2022-10-17T02:27:44.862Z,99.90
2022-10-17T02:30:17.968Z,99.90
2022-10-17T02:32:52.381Z,99.90
2022-10-17T02:35:23.774Z,99.90
2022-10-17T02:37:53.255Z,99.90
2022-10-17T02:40:26.115Z,99.90
2022-10-17T02:43:02.168Z,99.90
2022-10-17T02:45:36.105Z,99.90
2022-10-17T02:48:07.019Z,99.90
2022-10-17T02:50:45.645Z,99.90
2022-10-17T02:53:16.311Z,99.90
2022-10-17T02:55:51.615Z,99.90
2022-10-17T02:58:25.058Z,99.90
2022-10-17T03:00:54.329Z,99.90
2022-10-17T03:03:24.245Z,99.90
2022-10-17T03:05:53.931Z,99.90
2022-10-17T03:08:22.805Z,99.90
2022-10-17T03:10:50.939Z,99.90
2022-10-17T03:13:19.255Z,99.90
2022-10-17T03:15:47.334Z,99.90
2022-10-17T03:18:15.363Z,99.90
2022-10-17T03:20:43.466Z,99.90
2022-10-17T03:23:12.787Z,99.90
2022-10-17T03:25:40.851Z,99.90
2022-10-17T03:28:08.918Z,99.90
2022-10-17T03:30:39.644Z,99.90
2022-10-17T03:33:07.679Z,99.90
2022-10-17T03:35:35.651Z,99.90
2022-10-17T03:38:03.671Z,99.90
2022-10-17T03:40:33.059Z,99.90
2022-10-17T03:43:01.082Z,99.90
2022-10-17T03:45:29.528Z,99.90
2022-10-17T03:48:00.002Z,99.90
2022-10-17T03:50:28.213Z,99.90
2022-10-17T03:52:56.285Z,99.90
2022-10-17T03:55:25.234Z,99.90
2022-10-17T03:57:54.690Z,99.90
2022-10-17T04:00:22.823Z,99.90
2022-10-17T04:02:50.885Z,99.90
2022-10-17T04:05:18.921Z,99.90
2022-10-17T04:07:46.966Z,99.90
2022-10-17T04:10:14.993Z,99.90
2022-10-17T04:12:43.003Z,99.90
2022-10-17T04:15:13.059Z,99.90
2022-10-17T04:17:41.211Z,99.90
2022-10-17T04:20:10.575Z,99.90
2022-10-17T04:22:38.606Z,99.90
2022-10-17T04:25:08.099Z,99.90
2022-10-17T04:27:36.187Z,99.90
2022-10-17T04:30:04.535Z,99.90
2022-10-17T04:32:37.956Z,99.90
2022-10-17T04:35:06.845Z,99.90
2022-10-17T04:37:34.896Z,99.90
2022-10-17T04:40:03.235Z,99.90
2022-10-17T04:42:31.559Z,99.90
2022-10-17T04:44:59.871Z,99.90
2022-10-17T04:47:27.835Z,99.90
2022-10-17T04:49:57.191Z,99.90
2022-10-17T04:52:25.666Z,99.90
2022-10-17T04:54:53.696Z,99.90
2022-10-17T04:57:21.844Z,99.90
2022-10-17T04:59:49.919Z,99.90
2022-10-17T05:02:18.147Z,99.90
2022-10-17T05:04:46.127Z,99.90
2022-10-17T05:07:15.503Z,99.90
2022-10-17T05:09:47.062Z,99.90
2022-10-17T05:12:15.028Z,99.90
2022-10-17T05:14:43.443Z,99.90
2022-10-17T05:17:11.402Z,99.90
2022-10-17T05:19:39.412Z,99.90
2022-10-17T05:22:07.567Z,99.90
2022-10-17T05:24:37.197Z,99.90
2022-10-17T05:27:05.355Z,99.90
2022-10-17T05:29:33.356Z,99.90
2022-10-17T05:34:30.459Z,99.90
2022-10-17T05:36:58.995Z,99.90
2022-10-17T05:39:27.133Z,99.90
2022-10-17T05:41:56.845Z,99.90
2022-10-17T05:44:24.893Z,99.90
2022-10-17T05:46:52.937Z,99.90
2022-10-17T05:49:32.556Z,99.90
2022-10-17T05:52:08.085Z,99.90
2022-10-17T05:54:36.066Z,99.90
2022-10-17T05:57:05.755Z,99.90
2022-10-17T05:59:33.747Z,99.90
2022-10-17T06:02:01.880Z,99.90
2022-10-17T06:04:29.880Z,99.90
2022-10-17T06:06:57.954Z,99.90
2022-10-17T06:09:26.015Z,99.90
2022-10-17T06:11:53.997Z,99.90
2022-10-17T06:14:23.687Z,99.90
2022-10-17T06:16:51.644Z,99.90
2022-10-17T06:19:20.438Z,99.90
2022-10-17T06:21:48.403Z,99.90
2022-10-17T06:24:16.707Z,99.90
2022-10-17T06:26:44.847Z,99.90
2022-10-17T06:29:13.099Z,99.90
2022-10-17T06:31:42.838Z,99.90
2022-10-17T06:34:10.819Z,99.90
2022-10-17T06:36:38.818Z,99.90
2022-10-17T06:39:06.925Z,99.90
2022-10-17T06:41:34.876Z,99.90
2022-10-17T06:44:08.386Z,99.90
2022-10-17T06:46:36.432Z,99.90
2022-10-17T06:49:06.125Z,99.90
2022-10-17T06:51:36.951Z,99.90
2022-10-17T06:54:05.101Z,99.90
2022-10-17T06:56:33.169Z,99.90
2022-10-17T06:59:01.304Z,99.90
2022-10-17T07:01:29.906Z,99.90
2022-10-17T07:03:58.521Z,99.90
2022-10-17T07:06:28.200Z,99.90
2022-10-17T07:08:56.474Z,99.90
2022-10-17T07:11:25.809Z,99.90
2022-10-17T07:13:54.079Z,99.90
2022-10-17T07:16:22.380Z,99.90
2022-10-17T07:18:51.300Z,99.90
2022-10-17T07:21:19.772Z,99.90
2022-10-17T07:23:49.681Z,99.90
2022-10-17T07:26:19.472Z,99.90
2022-10-17T07:28:49.367Z,99.90
2022-10-17T07:31:19.200Z,99.90
2022-10-17T07:36:20.586Z,99.90
2022-10-17T07:38:50.075Z,99.90
2022-10-17T07:41:21.644Z,99.90
2022-10-17T07:43:50.325Z,99.90
2022-10-17T07:46:18.342Z,99.90
2022-10-17T07:48:46.391Z,99.90
2022-10-17T07:51:14.383Z,99.90
2022-10-17T07:53:46.360Z,99.90
2022-10-17T07:56:18.238Z,99.90
2022-10-17T07:58:48.163Z,99.90
2022-10-17T08:01:16.415Z,99.90
2022-10-17T08:03:45.382Z,99.90
2022-10-17T08:06:14.034Z,99.90
2022-10-17T08:08:42.791Z,99.90
2022-10-17T08:11:12.644Z,99.90
2022-10-17T08:13:43.480Z,99.90
2022-10-17T08:16:14.181Z,99.90
2022-10-17T08:18:44.239Z,99.90
2022-10-17T08:21:14.067Z,99.90
2022-10-17T08:23:42.344Z,99.90
2022-10-17T08:26:13.248Z,99.90
2022-10-17T08:28:42.845Z,99.90
2022-10-17T08:31:13.226Z,99.90
2022-10-17T08:33:42.010Z,99.90
2022-10-17T08:36:10.957Z,99.90
2022-10-17T08:38:43.134Z,99.90
2022-10-17T08:41:19.938Z,99.90
2022-10-17T08:43:59.758Z,99.90
2022-10-17T08:46:32.518Z,99.90
2022-10-17T08:49:02.513Z,99.90
2022-10-17T08:51:35.075Z,99.90
2022-10-17T08:54:10.399Z,99.90
2022-10-17T08:56:48.530Z,99.90
2022-10-17T08:59:22.650Z,99.90
2022-10-17T09:01:57.958Z,99.90
2022-10-17T09:04:50.684Z,99.90
2022-10-17T09:07:28.822Z,99.90
2022-10-17T09:10:06.144Z,99.90
2022-10-17T09:12:42.660Z,99.90
2022-10-17T09:15:35.420Z,99.90
2022-10-17T09:18:10.630Z,99.90
2022-10-17T09:20:41.945Z,99.90
2022-10-17T09:23:17.054Z,99.90
2022-10-17T09:25:47.563Z,99.90
2022-10-17T09:28:20.954Z,99.90
2022-10-17T09:30:57.329Z,99.90
2022-10-17T09:33:35.934Z,99.90
2022-10-17T09:36:14.527Z,99.90
2022-10-17T09:38:45.101Z,99.90
2022-10-17T09:44:19.248Z,99.90
2022-10-17T09:47:29.648Z,99.90
2022-10-17T09:49:58.865Z,99.90
2022-10-17T09:52:32.803Z,99.90
2022-10-17T09:55:05.439Z,99.90
2022-10-17T09:57:56.849Z,99.90
2022-10-17T10:00:27.046Z,99.90
2022-10-17T10:06:03.559Z,99.90
2022-10-17T10:08:49.632Z,99.90
2022-10-17T10:11:18.220Z,99.90
2022-10-17T10:13:48.906Z,99.90
2022-10-17T10:16:22.026Z,99.90
2022-10-17T10:18:51.456Z,99.90
2022-10-17T10:21:22.545Z,99.90
2022-10-17T10:24:13.342Z,99.90
2022-10-17T10:26:44.778Z,99.90
2022-10-17T10:29:24.708Z,99.90
2022-10-17T10:31:54.657Z,99.90
2022-10-17T10:34:26.530Z,99.90
2022-10-17T10:37:03.171Z,99.90
2022-10-17T10:39:37.423Z,99.90
2022-10-17T10:42:08.584Z,99.90
2022-10-17T10:44:42.621Z,99.90
2022-10-17T10:47:23.776Z,99.90
2022-10-17T10:50:18.394Z,99.90
2022-10-17T10:52:56.356Z,99.90
2022-10-17T10:55:30.643Z,99.90
2022-10-17T10:58:04.841Z,99.90
2022-10-17T11:00:35.113Z,99.90
2022-10-17T11:03:12.832Z,99.90
2022-10-17T11:05:45.837Z,99.90
2022-10-17T11:08:23.146Z,99.90
2022-10-17T11:11:04.639Z,99.90
2022-10-17T11:13:37.380Z,99.90
2022-10-17T11:16:23.305Z,99.90
2022-10-17T11:18:57.788Z,99.90
2022-10-17T11:21:36.395Z,99.90
2022-10-17T11:24:13.637Z,99.90
2022-10-17T11:26:46.187Z,99.90
2022-10-17T11:29:14.688Z,99.90
2022-10-17T11:31:47.667Z,99.90
2022-10-17T11:34:22.100Z,99.90
2022-10-17T11:36:54.127Z,99.90
2022-10-17T11:39:30.460Z,99.90
2022-10-17T11:42:04.308Z,99.90
2022-10-17T11:44:36.343Z,99.90
2022-10-17T11:47:08.782Z,99.90
2022-10-17T11:49:41.045Z,99.90
2022-10-17T11:52:54.908Z,99.90
2022-10-17T11:55:23.105Z,99.90
2022-10-17T11:58:01.844Z,99.90
2022-10-17T12:00:42.777Z,99.90
2022-10-17T12:03:26.872Z,99.90
2022-10-17T12:06:01.157Z,99.90
2022-10-17T12:08:35.451Z,99.90
2022-10-17T12:11:12.136Z,99.90
2022-10-17T12:13:53.068Z,99.90
2022-10-17T12:16:51.239Z,99.90
2022-10-17T12:19:30.732Z,99.90
2022-10-17T12:22:15.340Z,99.90
2022-10-17T12:24:45.644Z,99.90
2022-10-17T12:27:32.433Z,99.90
2022-10-17T12:30:02.383Z,99.90
2022-10-17T12:32:46.885Z,99.90
2022-10-17T12:35:24.229Z,99.90
2022-10-17T12:38:03.950Z,99.90
2022-10-17T12:40:57.676Z,99.90
2022-10-17T12:43:52.657Z,99.90
2022-10-17T12:46:50.998Z,99.90
2022-10-17T12:49:50.388Z,99.90
2022-10-17T12:52:54.808Z,99.90
2022-10-17T12:55:25.926Z,99.90
2022-10-17T12:57:58.652Z,99.90
2022-10-17T13:00:36.989Z,99.90
2022-10-17T13:03:11.766Z,99.90
2022-10-17T13:05:42.802Z,99.80
2022-10-17T13:08:18.778Z,99.90
2022-10-17T13:10:52.408Z,99.90
2022-10-17T13:13:23.488Z,99.90
2022-10-17T13:15:54.470Z,99.90
2022-10-17T13:18:25.187Z,99.90
2022-10-17T13:21:00.994Z,99.80
2022-10-17T13:23:33.346Z,99.80
2022-10-17T13:26:14.976Z,99.50
2022-10-17T13:28:43.258Z,99.80
2022-10-17T13:31:30.687Z,99.80
2022-10-17T13:34:00.328Z,99.60
2022-10-17T13:36:30.496Z,99.50
2022-10-17T13:39:00.958Z,99.80
2022-10-17T13:41:35.863Z,99.60
2022-10-17T13:44:10.509Z,99.70
2022-10-17T13:46:41.047Z,99.50
2022-10-17T13:49:23.312Z,99.70
2022-10-17T13:51:55.463Z,99.60
2022-10-17T13:54:40.149Z,99.30
2022-10-17T13:57:19.435Z,99.20
2022-10-17T13:59:49.788Z,99.30
2022-10-17T14:02:26.937Z,99.30
2022-10-17T14:05:16.844Z,99.30
2022-10-17T14:08:09.965Z,99.10
2022-10-17T14:10:37.787Z,98.90
2022-10-17T14:13:08.160Z,99.20
2022-10-17T14:15:37.748Z,99.00
2022-10-17T14:18:11.701Z,99.00
2022-10-17T14:21:25.561Z,98.90
2022-10-17T14:23:36.598Z,99.20
2022-10-17T14:26:16.969Z,98.90
2022-10-17T14:28:48.399Z,98.90
2022-10-17T14:31:26.732Z,98.80
2022-10-17T14:33:56.639Z,98.90
2022-10-17T14:36:43.975Z,98.90
2022-10-17T14:39:25.040Z,98.80
2022-10-17T14:41:53.818Z,99.20
2022-10-17T14:44:26.855Z,98.80
2022-10-17T14:47:00.203Z,98.90
2022-10-17T14:49:38.582Z,98.70
2022-10-17T14:52:32.159Z,99.10
2022-10-17T14:55:13.933Z,99.00
2022-10-17T14:57:46.643Z,98.80
2022-10-17T15:00:16.940Z,98.70
2022-10-17T15:02:46.036Z,99.00
2022-10-17T15:05:17.199Z,98.50
2022-10-17T15:07:45.584Z,98.70
2022-10-17T15:10:28.409Z,98.70
2022-10-17T15:12:59.188Z,99.10
2022-10-17T15:15:33.340Z,98.70
2022-10-17T15:18:02.206Z,98.70
2022-10-17T15:20:32.192Z,98.80
2022-10-17T15:23:02.026Z,98.90
2022-10-17T15:25:32.348Z,99.20
2022-10-17T15:28:00.367Z,99.30
2022-10-17T15:30:32.043Z,99.10
2022-10-17T15:33:00.846Z,99.50
2022-10-17T15:35:31.296Z,98.90
2022-10-17T15:37:59.955Z,99.20
2022-10-17T15:40:30.381Z,98.80
2022-10-17T15:42:58.992Z,99.00
2022-10-17T15:45:27.131Z,98.90
2022-10-17T15:47:57.404Z,99.10
2022-10-17T15:50:25.426Z,99.30
2022-10-17T15:52:54.851Z,99.20
2022-10-17T15:55:23.111Z,99.20
2022-10-17T15:57:51.199Z,99.20
2022-10-17T16:00:21.116Z,99.40
2022-10-17T16:02:50.389Z,99.30
2022-10-17T16:05:25.446Z,99.50
2022-10-17T16:07:55.776Z,99.60
2022-10-17T16:10:25.510Z,99.50
2022-10-17T16:12:53.903Z,99.50
2022-10-17T16:15:23.918Z,99.90
2022-10-17T16:17:53.035Z,99.80
2022-10-17T16:20:21.720Z,99.90
2022-10-17T16:22:50.409Z,99.90
2022-10-17T16:25:25.204Z,99.90
2022-10-17T16:27:56.336Z,99.90
2022-10-17T16:30:26.310Z,99.90
2022-10-17T16:32:55.463Z,99.90
2022-10-17T16:35:26.567Z,99.90
2022-10-17T16:37:54.757Z,99.90
2022-10-17T16:40:24.315Z,99.90
2022-10-17T16:42:52.396Z,99.90
2022-10-17T16:45:22.433Z,99.90
2022-10-17T16:47:52.974Z,99.90
2022-10-17T16:50:21.075Z,99.90
2022-10-17T16:52:49.035Z,99.90
2022-10-17T16:55:18.804Z,99.90
2022-10-17T16:57:49.898Z,99.90
2022-10-17T17:00:18.480Z,99.90
2022-10-17T17:02:49.227Z,99.90
2022-10-17T17:05:17.962Z,99.90
2022-10-17T17:07:48.998Z,99.90
2022-10-17T17:10:17.191Z,99.90
2022-10-17T17:12:45.311Z,99.90
2022-10-17T17:15:17.907Z,99.90
2022-10-17T17:17:52.403Z,99.90
2022-10-17T17:20:23.179Z,99.90
2022-10-17T17:22:52.582Z,99.90
2022-10-17T17:25:21.239Z,99.90
2022-10-17T17:27:49.629Z,99.90
2022-10-17T17:30:19.844Z,99.90
2022-10-17T17:32:54.199Z,99.90
2022-10-17T17:35:41.209Z,99.90
2022-10-17T17:38:10.962Z,99.90
2022-10-17T17:40:50.368Z,99.90
2022-10-17T17:43:23.262Z,99.90
2022-10-17T17:45:53.077Z,99.90
2022-10-17T17:48:21.718Z,99.90
2022-10-17T17:50:50.277Z,99.90
2022-10-17T17:53:18.849Z,99.90
2022-10-17T17:55:47.054Z,99.90
2022-10-17T17:58:15.406Z,99.90
2022-10-17T18:00:44.526Z,99.90
2022-10-17T18:03:16.098Z,99.90
2022-10-17T18:05:44.455Z,99.90
2022-10-17T18:08:13.020Z,99.90
2022-10-17T18:10:41.084Z,99.90
2022-10-17T18:13:09.148Z,99.90
2022-10-17T18:15:38.388Z,99.90
2022-10-17T18:18:06.871Z,99.90
2022-10-17T18:20:40.664Z,99.90
2022-10-17T18:23:09.153Z,99.90
2022-10-17T18:25:38.340Z,99.90
2022-10-17T18:28:08.155Z,99.90
2022-10-17T18:30:38.703Z,99.90
2022-10-17T18:33:13.005Z,99.90
2022-10-17T18:35:42.399Z,99.90
2022-10-17T18:38:11.218Z,99.90
2022-10-17T18:40:39.367Z,99.90
2022-10-17T18:43:07.440Z,99.90
2022-10-17T18:45:35.398Z,99.90
2022-10-17T18:48:03.765Z,99.90
2022-10-17T18:50:31.758Z,99.90
2022-10-17T18:53:01.085Z,99.90
2022-10-17T18:55:29.265Z,99.90
2022-10-17T18:57:57.339Z,99.90
2022-10-17T19:00:25.443Z,99.90
2022-10-17T19:02:53.482Z,99.90
2022-10-17T19:05:21.433Z,99.90
2022-10-17T19:07:50.202Z,99.90
2022-10-17T19:10:19.618Z,99.90
2022-10-17T19:12:47.641Z,99.90
2022-10-17T19:15:15.797Z,99.90
2022-10-17T19:17:43.816Z,99.90
2022-10-17T19:20:15.654Z,99.90
2022-10-17T19:22:43.629Z,99.90
2022-10-17T19:25:11.923Z,99.90
2022-10-17T19:27:41.229Z,99.90
2022-10-17T19:30:10.718Z,99.90
2022-10-17T19:32:38.667Z,99.90
2022-10-17T19:35:07.645Z,99.90
2022-10-17T19:37:35.612Z,99.90
2022-10-17T19:40:03.904Z,99.90
2022-10-17T19:42:32.215Z,99.90
2022-10-17T19:45:01.943Z,99.90
2022-10-17T19:47:30.605Z,99.90
2022-10-17T19:49:58.612Z,99.90
2022-10-17T19:52:26.838Z,99.90
2022-10-17T19:54:54.925Z,99.90
2022-10-17T19:57:22.967Z,99.90
2022-10-17T19:59:53.672Z,99.90
2022-10-17T20:02:25.390Z,99.90
2022-10-17T20:05:00.229Z,99.90
2022-10-17T20:07:34.555Z,99.90
2022-10-17T20:10:02.543Z,99.90
2022-10-17T20:12:30.668Z,99.90
2022-10-17T20:14:59.008Z,99.90
2022-10-17T20:17:28.389Z,99.90
2022-10-17T20:19:56.933Z,99.90
2022-10-17T20:22:25.622Z,99.90
2022-10-17T20:24:53.581Z,99.90
2022-10-17T20:27:25.537Z,99.90
2022-10-17T20:29:55.760Z,99.90
2022-10-17T20:32:23.684Z,99.90
2022-10-17T20:34:53.012Z,99.90
2022-10-17T20:37:21.783Z,99.90
2022-10-17T20:39:59.989Z,99.90
2022-10-17T20:42:38.743Z,99.90
2022-10-17T20:45:07.793Z,99.90
2022-10-17T20:47:46.071Z,99.90
2022-10-17T20:50:16.954Z,99.90
2022-10-17T20:52:44.920Z,99.90
2022-10-17T20:55:12.861Z,99.90
2022-10-17T20:57:40.863Z,99.90
2022-10-17T21:00:10.107Z,99.90
2022-10-17T21:02:38.218Z,99.90
2022-10-17T21:05:06.960Z,99.90
2022-10-17T21:07:36.566Z,99.90
2022-10-17T21:10:30.593Z,99.90
2022-10-17T21:12:54.408Z,99.90
2022-10-17T21:15:22.557Z,99.90
2022-10-17T21:17:50.587Z,99.90
2022-10-17T21:20:18.896Z,99.90
2022-10-17T21:22:48.319Z,99.90
2022-10-17T21:25:16.677Z,99.90
2022-10-17T21:27:44.663Z,99.90
2022-10-17T21:30:12.903Z,99.90
2022-10-17T21:32:51.374Z,99.90
2022-10-17T21:35:19.813Z,99.90
2022-10-17T21:37:49.155Z,99.90
2022-10-17T21:40:17.239Z,99.90
2022-10-17T21:42:45.342Z,99.90
2022-10-17T21:45:15.801Z,99.90
2022-10-17T21:48:11.824Z,99.90
2022-10-17T21:50:36.363Z,99.90
2022-10-17T21:53:05.777Z,99.90
2022-10-17T21:55:33.727Z,99.90
2022-10-17T21:58:01.822Z,99.90
2022-10-17T22:00:29.833Z,99.90
2022-10-17T22:02:57.788Z,99.90
2022-10-17T22:05:26.015Z,99.90
2022-10-17T22:07:54.020Z,99.90
2022-10-17T22:10:23.439Z,99.90
2022-10-17T22:12:51.627Z,99.90
2022-10-17T22:15:19.690Z,99.90
2022-10-17T22:17:47.641Z,99.90
2022-10-17T22:20:15.813Z,99.90
2022-10-17T22:22:43.863Z,99.90
2022-10-17T22:25:12.389Z,99.90
2022-10-17T22:28:02.263Z,99.90
2022-10-17T22:30:49.246Z,99.90
2022-10-17T22:33:37.473Z,99.90
2022-10-17T22:36:25.131Z,99.90
2022-10-17T22:39:12.699Z,99.90
2022-10-17T22:41:59.862Z,99.90
2022-10-17T22:44:48.050Z,99.90
2022-10-17T22:47:35.070Z,99.90
2022-10-17T22:50:23.368Z,99.90
2022-10-17T22:53:12.070Z,99.90
2022-10-17T22:55:40.155Z,99.90
2022-10-17T22:58:13.070Z,99.90
2022-10-17T23:00:42.403Z,99.90
2022-10-17T23:03:10.431Z,99.90
2022-10-17T23:05:38.399Z,99.90
2022-10-17T23:08:06.622Z,99.90
2022-10-17T23:10:35.347Z,99.90
2022-10-17T23:13:03.489Z,99.90
2022-10-17T23:15:31.785Z,99.90
2022-10-17T23:18:01.769Z,99.90
2022-10-17T23:20:30.229Z,99.90
2022-10-17T23:22:58.611Z,99.90
2022-10-17T23:25:27.047Z,99.90
2022-10-17T23:27:55.164Z,99.90
2022-10-17T23:30:23.184Z,99.90
2022-10-17T23:32:51.263Z,99.90
2022-10-17T23:35:20.692Z,99.90
2022-10-17T23:37:48.607Z,99.90
2022-10-17T23:40:16.642Z,99.90
2022-10-17T23:42:45.006Z,99.90
2022-10-17T23:45:13.508Z,99.90
2022-10-17T23:47:41.490Z,99.90
2022-10-17T23:50:09.795Z,99.90
2022-10-17T23:52:39.157Z,99.90
2022-10-17T23:55:08.740Z,99.90
2022-10-17T23:57:36.816Z,99.90
